sensor_id;sensor_type;location;lat;lon;timestamp;temperature;humidity
15636;DHT22;7917;50.818;6.972;2022-12-07T00:00:55;4.60;99.90
15636;DHT22;7917;50.818;6.972;2022-12-07T00:03:22;4.60;99.90
15636;DHT22;7917;50.818;6.972;2022-12-07T00:05:49;4.70;99.90
15636;DHT22;7917;50.818;6.972;2022-12-07T00:08:18;4.70;99.90
15636;DHT22;7917;50.818;6.972;2022-12-07T00:10:46;4.70;99.90
15636;DHT22;7917;50.818;6.972;2022-12-07T00:13:14;4.70;99.90
15636;DHT22;7917;50.818;6.972;2022-12-07T00:15:41;4.70;99.90
15636;DHT22;7917;50.818;6.972;2022-12-07T00:18:11;4.70;99.90
15636;DHT22;7917;50.818;6.972;2022-12-07T00:20:38;4.70;99.90
15636;DHT22;7917;50.818;6.972;2022-12-07T00:23:05;4.70;99.90
15636;DHT22;7917;50.818;6.972;2022-12-07T00:25:33;4.70;99.90
15636;DHT22;7917;50.818;6.972;2022-12-07T00:28:03;4.70;99.90
15636;DHT22;7917;50.818;6.972;2022-12-07T00:30:30;4.70;99.90
15636;DHT22;7917;50.818;6.972;2022-12-07T00:32:57;4.70;99.90
15636;DHT22;7917;50.818;6.972;2022-12-07T00:35:25;4.70;99.90
15636;DHT22;7917;50.818;6.972;2022-12-07T00:37:52;4.70;99.90
15636;DHT22;7917;50.818;6.972;2022-12-07T00:40:19;4.70;99.90
15636;DHT22;7917;50.818;6.972;2022-12-07T00:42:46;4.70;99.90
15636;DHT22;7917;50.818;6.972;2022-12-07T00:45:15;4.60;99.90
15636;DHT22;7917;50.818;6.972;2022-12-07T00:47:43;4.60;99.90
15636;DHT22;7917;50.818;6.972;2022-12-07T00:50:11;4.50;99.90
15636;DHT22;7917;50.818;6.972;2022-12-07T00:52:38;4.50;99.90
15636;DHT22;7917;50.818;6.972;2022-12-07T00:55:07;4.50;99.90
15636;DHT22;7917;50.818;6.972;2022-12-07T00:57:35;4.50;99.90
15636;DHT22;7917;50.818;6.972;2022-12-07T01:00:02;4.50;99.90
15636;DHT22;7917;50.818;6.972;2022-12-07T01:02:34;4.60;99.90
15636;DHT22;7917;50.818;6.972;2022-12-07T01:05:01;4.60;99.90
15636;DHT22;7917;50.818;6.972;2022-12-07T01:07:29;4.60;99.90
15636;DHT22;7917;50.818;6.972;2022-12-07T01:09:56;4.70;99.90
15636;DHT22;7917;50.818;6.972;2022-12-07T01:12:23;4.70;99.90
15636;DHT22;7917;50.818;6.972;2022-12-07T01:14:50;4.70;99.90
15636;DHT22;7917;50.818;6.972;2022-12-07T01:17:18;4.70;99.90
15636;DHT22;7917;50.818;6.972;2022-12-07T01:19:47;4.70;99.90
15636;DHT22;7917;50.818;6.972;2022-12-07T01:22:14;4.70;99.90
15636;DHT22;7917;50.818;6.972;2022-12-07T01:24:42;4.70;99.90
15636;DHT22;7917;50.818;6.972;2022-12-07T01:27:09;4.70;99.90
15636;DHT22;7917;50.818;6.972;2022-12-07T01:29:36;4.70;99.90
15636;DHT22;7917;50.818;6.972;2022-12-07T01:32:04;4.70;99.90
15636;DHT22;7917;50.818;6.972;2022-12-07T01:34:32;4.70;99.90
15636;DHT22;7917;50.818;6.972;2022-12-07T01:37:00;4.80;99.90
15636;DHT22;7917;50.818;6.972;2022-12-07T01:39:27;4.80;99.90
15636;DHT22;7917;50.818;6.972;2022-12-07T01:41:55;4.80;99.90
15636;DHT22;7917;50.818;6.972;2022-12-07T01:44:23;4.90;99.90
15636;DHT22;7917;50.818;6.972;2022-12-07T01:46:51;4.90;99.90
15636;DHT22;7917;50.818;6.972;2022-12-07T01:49:24;4.90;99.90
15636;DHT22;7917;50.818;6.972;2022-12-07T01:52:00;4.90;99.90
15636;DHT22;7917;50.818;6.972;2022-12-07T01:54:28;4.90;99.90
15636;DHT22;7917;50.818;6.972;2022-12-07T01:56:57;4.90;99.90
15636;DHT22;7917;50.818;6.972;2022-12-07T01:59:26;4.90;99.90
15636;DHT22;7917;50.818;6.972;2022-12-07T02:01:54;5.00;99.90
15636;DHT22;7917;50.818;6.972;2022-12-07T02:04:22;5.00;99.90
15636;DHT22;7917;50.818;6.972;2022-12-07T02:06:51;5.00;99.90
15636;DHT22;7917;50.818;6.972;2022-12-07T02:09:20;5.00;99.90
15636;DHT22;7917;50.818;6.972;2022-12-07T02:11:47;5.00;99.90
15636;DHT22;7917;50.818;6.972;2022-12-07T02:14:14;4.90;99.90
15636;DHT22;7917;50.818;6.972;2022-12-07T02:16:51;5.00;99.90
15636;DHT22;7917;50.818;6.972;2022-12-07T02:22:49;5.00;99.90
15636;DHT22;7917;50.818;6.972;2022-12-07T02:25:30;4.90;99.90
15636;DHT22;7917;50.818;6.972;2022-12-07T02:28:04;5.00;99.90
15636;DHT22;7917;50.818;6.972;2022-12-07T02:30:38;5.00;99.90
15636;DHT22;7917;50.818;6.972;2022-12-07T02:33:11;4.90;99.90
15636;DHT22;7917;50.818;6.972;2022-12-07T02:35:44;5.00;99.90
15636;DHT22;7917;50.818;6.972;2022-12-07T02:38:15;5.00;99.90
15636;DHT22;7917;50.818;6.972;2022-12-07T02:40:50;5.00;99.90
15636;DHT22;7917;50.818;6.972;2022-12-07T02:43:21;4.90;99.90
15636;DHT22;7917;50.818;6.972;2022-12-07T02:45:55;4.90;99.90
15636;DHT22;7917;50.818;6.972;2022-12-07T02:48:26;4.90;99.90
15636;DHT22;7917;50.818;6.972;2022-12-07T02:50:54;4.90;99.90
15636;DHT22;7917;50.818;6.972;2022-12-07T02:53:33;4.90;99.90
15636;DHT22;7917;50.818;6.972;2022-12-07T02:56:05;4.90;99.90
15636;DHT22;7917;50.818;6.972;2022-12-07T02:58:41;5.00;99.90
15636;DHT22;7917;50.818;6.972;2022-12-07T03:01:24;4.90;99.90
15636;DHT22;7917;50.818;6.972;2022-12-07T03:04:05;4.90;99.90
15636;DHT22;7917;50.818;6.972;2022-12-07T03:06:41;4.90;99.90
15636;DHT22;7917;50.818;6.972;2022-12-07T03:09:14;4.90;99.90
15636;DHT22;7917;50.818;6.972;2022-12-07T03:11:47;4.90;99.90
15636;DHT22;7917;50.818;6.972;2022-12-07T03:14:23;5.00;99.90
15636;DHT22;7917;50.818;6.972;2022-12-07T03:16:58;5.00;99.90
15636;DHT22;7917;50.818;6.972;2022-12-07T03:19:28;5.00;99.90
15636;DHT22;7917;50.818;6.972;2022-12-07T03:22:00;5.00;99.90
15636;DHT22;7917;50.818;6.972;2022-12-07T03:24:33;4.90;99.90
15636;DHT22;7917;50.818;6.972;2022-12-07T03:27:05;5.00;99.90
15636;DHT22;7917;50.818;6.972;2022-12-07T03:29:38;5.00;99.90
15636;DHT22;7917;50.818;6.972;2022-12-07T03:32:14;5.00;99.90
15636;DHT22;7917;50.818;6.972;2022-12-07T03:34:47;5.00;99.90
15636;DHT22;7917;50.818;6.972;2022-12-07T03:37:20;5.00;99.90
15636;DHT22;7917;50.818;6.972;2022-12-07T03:40:03;5.00;99.90
15636;DHT22;7917;50.818;6.972;2022-12-07T03:42:33;5.00;99.90
15636;DHT22;7917;50.818;6.972;2022-12-07T03:45:02;5.00;99.90
15636;DHT22;7917;50.818;6.972;2022-12-07T03:47:35;5.00;99.90
15636;DHT22;7917;50.818;6.972;2022-12-07T03:50:07;4.90;99.90
15636;DHT22;7917;50.818;6.972;2022-12-07T03:52:40;5.00;99.90
15636;DHT22;7917;50.818;6.972;2022-12-07T03:55:12;5.00;99.90
15636;DHT22;7917;50.818;6.972;2022-12-07T03:57:43;5.00;99.90
15636;DHT22;7917;50.818;6.972;2022-12-07T04:03:37;5.00;99.90
15636;DHT22;7917;50.818;6.972;2022-12-07T04:06:05;5.00;99.90
15636;DHT22;7917;50.818;6.972;2022-12-07T04:08:40;5.00;99.90
15636;DHT22;7917;50.818;6.972;2022-12-07T04:11:08;5.00;99.90
15636;DHT22;7917;50.818;6.972;2022-12-07T04:13:40;5.00;99.90
15636;DHT22;7917;50.818;6.972;2022-12-07T04:16:21;4.90;99.90
15636;DHT22;7917;50.818;6.972;2022-12-07T04:18:54;4.90;99.90
15636;DHT22;7917;50.818;6.972;2022-12-07T04:21:21;4.90;99.90
15636;DHT22;7917;50.818;6.972;2022-12-07T04:23:49;4.90;99.90
15636;DHT22;7917;50.818;6.972;2022-12-07T04:26:17;4.90;99.90
15636;DHT22;7917;50.818;6.972;2022-12-07T04:28:45;4.90;99.90
15636;DHT22;7917;50.818;6.972;2022-12-07T04:31:13;4.90;99.90
15636;DHT22;7917;50.818;6.972;2022-12-07T04:33:42;4.90;99.90
15636;DHT22;7917;50.818;6.972;2022-12-07T04:36:11;4.90;99.90
15636;DHT22;7917;50.818;6.972;2022-12-07T04:38:38;4.90;99.90
15636;DHT22;7917;50.818;6.972;2022-12-07T04:41:07;4.90;99.90
15636;DHT22;7917;50.818;6.972;2022-12-07T04:43:35;4.90;99.90
15636;DHT22;7917;50.818;6.972;2022-12-07T04:46:02;4.80;99.90
15636;DHT22;7917;50.818;6.972;2022-12-07T04:48:31;4.80;99.90
15636;DHT22;7917;50.818;6.972;2022-12-07T04:50:58;4.80;99.90
15636;DHT22;7917;50.818;6.972;2022-12-07T04:53:27;4.70;99.90
15636;DHT22;7917;50.818;6.972;2022-12-07T04:55:55;4.60;99.90
15636;DHT22;7917;50.818;6.972;2022-12-07T04:58:24;4.60;99.90
15636;DHT22;7917;50.818;6.972;2022-12-07T05:00:54;4.50;99.90
15636;DHT22;7917;50.818;6.972;2022-12-07T05:03:23;4.50;99.90
15636;DHT22;7917;50.818;6.972;2022-12-07T05:05:50;4.40;99.90
15636;DHT22;7917;50.818;6.972;2022-12-07T05:08:18;4.30;99.90
15636;DHT22;7917;50.818;6.972;2022-12-07T05:10:48;4.30;99.90
15636;DHT22;7917;50.818;6.972;2022-12-07T05:13:16;4.30;99.90
15636;DHT22;7917;50.818;6.972;2022-12-07T05:15:43;4.30;99.90
15636;DHT22;7917;50.818;6.972;2022-12-07T05:18:12;4.30;99.90
15636;DHT22;7917;50.818;6.972;2022-12-07T05:20:40;4.30;99.90
15636;DHT22;7917;50.818;6.972;2022-12-07T05:23:07;4.30;99.90
15636;DHT22;7917;50.818;6.972;2022-12-07T05:25:35;4.30;99.90
15636;DHT22;7917;50.818;6.972;2022-12-07T05:28:05;4.30;99.90
15636;DHT22;7917;50.818;6.972;2022-12-07T05:30:33;4.30;99.90
15636;DHT22;7917;50.818;6.972;2022-12-07T05:33:02;4.20;99.90
15636;DHT22;7917;50.818;6.972;2022-12-07T05:35:31;4.20;99.90
15636;DHT22;7917;50.818;6.972;2022-12-07T05:37:58;4.20;99.90
15636;DHT22;7917;50.818;6.972;2022-12-07T05:40:26;4.10;99.90
15636;DHT22;7917;50.818;6.972;2022-12-07T05:42:54;4.10;99.90
15636;DHT22;7917;50.818;6.972;2022-12-07T05:45:23;4.00;99.90
15636;DHT22;7917;50.818;6.972;2022-12-07T05:47:51;4.00;99.90
15636;DHT22;7917;50.818;6.972;2022-12-07T05:50:18;4.10;99.90
15636;DHT22;7917;50.818;6.972;2022-12-07T05:52:46;4.10;99.90
15636;DHT22;7917;50.818;6.972;2022-12-07T05:55:14;4.10;99.90
15636;DHT22;7917;50.818;6.972;2022-12-07T05:57:42;4.10;99.90
15636;DHT22;7917;50.818;6.972;2022-12-07T06:00:32;4.30;99.90
15636;DHT22;7917;50.818;6.972;2022-12-07T06:02:58;4.30;99.90
15636;DHT22;7917;50.818;6.972;2022-12-07T06:05:25;4.40;99.90
15636;DHT22;7917;50.818;6.972;2022-12-07T06:07:54;4.40;99.90
15636;DHT22;7917;50.818;6.972;2022-12-07T06:10:21;4.40;99.90
15636;DHT22;7917;50.818;6.972;2022-12-07T06:12:48;4.40;99.90
15636;DHT22;7917;50.818;6.972;2022-12-07T06:15:15;4.50;99.90
15636;DHT22;7917;50.818;6.972;2022-12-07T06:17:44;4.50;99.90
15636;DHT22;7917;50.818;6.972;2022-12-07T06:20:12;4.50;99.90
15636;DHT22;7917;50.818;6.972;2022-12-07T06:22:39;4.40;99.90
15636;DHT22;7917;50.818;6.972;2022-12-07T06:25:08;4.40;99.90
15636;DHT22;7917;50.818;6.972;2022-12-07T06:27:35;4.30;99.90
15636;DHT22;7917;50.818;6.972;2022-12-07T06:30:04;4.30;99.90
15636;DHT22;7917;50.818;6.972;2022-12-07T06:32:32;4.30;99.90
15636;DHT22;7917;50.818;6.972;2022-12-07T06:35:01;4.20;99.90
15636;DHT22;7917;50.818;6.972;2022-12-07T06:37:29;4.20;99.90
15636;DHT22;7917;50.818;6.972;2022-12-07T06:39:56;4.10;99.90
15636;DHT22;7917;50.818;6.972;2022-12-07T06:42:25;4.00;99.90
15636;DHT22;7917;50.818;6.972;2022-12-07T06:44:53;3.90;99.90
15636;DHT22;7917;50.818;6.972;2022-12-07T06:47:21;4.00;99.90
15636;DHT22;7917;50.818;6.972;2022-12-07T06:49:48;3.90;99.90
15636;DHT22;7917;50.818;6.972;2022-12-07T06:52:17;4.00;99.90
15636;DHT22;7917;50.818;6.972;2022-12-07T06:54:44;3.90;99.90
15636;DHT22;7917;50.818;6.972;2022-12-07T06:57:12;3.90;99.90
15636;DHT22;7917;50.818;6.972;2022-12-07T06:59:39;3.90;99.90
15636;DHT22;7917;50.818;6.972;2022-12-07T07:02:08;4.00;99.90
15636;DHT22;7917;50.818;6.972;2022-12-07T07:04:36;4.10;99.90
15636;DHT22;7917;50.818;6.972;2022-12-07T07:07:03;4.10;99.90
15636;DHT22;7917;50.818;6.972;2022-12-07T07:09:33;4.10;99.90
15636;DHT22;7917;50.818;6.972;2022-12-07T07:12:00;4.10;99.90
15636;DHT22;7917;50.818;6.972;2022-12-07T07:14:28;4.10;99.90
15636;DHT22;7917;50.818;6.972;2022-12-07T07:16:56;4.10;99.90
15636;DHT22;7917;50.818;6.972;2022-12-07T07:19:24;4.10;99.90
15636;DHT22;7917;50.818;6.972;2022-12-07T07:21:51;4.10;99.90
15636;DHT22;7917;50.818;6.972;2022-12-07T07:24:19;4.10;99.90
15636;DHT22;7917;50.818;6.972;2022-12-07T07:26:48;4.10;99.90
15636;DHT22;7917;50.818;6.972;2022-12-07T07:29:16;4.10;99.90
15636;DHT22;7917;50.818;6.972;2022-12-07T07:31:44;4.10;99.90
15636;DHT22;7917;50.818;6.972;2022-12-07T07:34:11;4.20;99.90
15636;DHT22;7917;50.818;6.972;2022-12-07T07:36:38;4.20;99.90
15636;DHT22;7917;50.818;6.972;2022-12-07T07:39:07;4.20;99.90
15636;DHT22;7917;50.818;6.972;2022-12-07T07:41:34;4.20;99.90
15636;DHT22;7917;50.818;6.972;2022-12-07T07:44:03;4.30;99.90
15636;DHT22;7917;50.818;6.972;2022-12-07T07:46:31;4.30;99.90
15636;DHT22;7917;50.818;6.972;2022-12-07T07:48:59;4.40;99.90
15636;DHT22;7917;50.818;6.972;2022-12-07T07:51:27;4.40;99.90
15636;DHT22;7917;50.818;6.972;2022-12-07T07:53:54;4.40;99.90
15636;DHT22;7917;50.818;6.972;2022-12-07T07:56:23;4.40;99.90
15636;DHT22;7917;50.818;6.972;2022-12-07T07:58:51;4.40;99.90
15636;DHT22;7917;50.818;6.972;2022-12-07T08:01:20;4.30;99.90
15636;DHT22;7917;50.818;6.972;2022-12-07T08:03:48;4.30;99.90
15636;DHT22;7917;50.818;6.972;2022-12-07T08:06:16;4.20;99.90
15636;DHT22;7917;50.818;6.972;2022-12-07T08:08:43;4.20;99.90
15636;DHT22;7917;50.818;6.972;2022-12-07T08:11:12;4.20;99.90
15636;DHT22;7917;50.818;6.972;2022-12-07T08:13:39;4.20;99.90
15636;DHT22;7917;50.818;6.972;2022-12-07T08:16:09;4.30;99.90
15636;DHT22;7917;50.818;6.972;2022-12-07T08:18:41;4.30;99.90
15636;DHT22;7917;50.818;6.972;2022-12-07T08:21:11;4.40;99.90
15636;DHT22;7917;50.818;6.972;2022-12-07T08:23:39;4.50;99.90
15636;DHT22;7917;50.818;6.972;2022-12-07T08:26:08;4.60;99.90
15636;DHT22;7917;50.818;6.972;2022-12-07T08:28:36;4.70;99.90
15636;DHT22;7917;50.818;6.972;2022-12-07T08:31:06;4.70;99.90
15636;DHT22;7917;50.818;6.972;2022-12-07T08:33:34;4.80;99.90
15636;DHT22;7917;50.818;6.972;2022-12-07T08:36:04;4.90;99.90
15636;DHT22;7917;50.818;6.972;2022-12-07T08:38:34;4.90;99.90
15636;DHT22;7917;50.818;6.972;2022-12-07T08:41:03;4.90;99.90
15636;DHT22;7917;50.818;6.972;2022-12-07T08:43:32;4.90;99.90
15636;DHT22;7917;50.818;6.972;2022-12-07T08:46:06;4.90;99.90
15636;DHT22;7917;50.818;6.972;2022-12-07T08:48:37;4.80;99.90
15636;DHT22;7917;50.818;6.972;2022-12-07T08:51:07;4.80;99.90
15636;DHT22;7917;50.818;6.972;2022-12-07T08:53:35;4.80;99.90
15636;DHT22;7917;50.818;6.972;2022-12-07T08:56:05;4.80;99.90
15636;DHT22;7917;50.818;6.972;2022-12-07T08:58:33;4.90;99.90
15636;DHT22;7917;50.818;6.972;2022-12-07T09:01:00;5.00;99.90
15636;DHT22;7917;50.818;6.972;2022-12-07T09:03:29;5.20;99.90
15636;DHT22;7917;50.818;6.972;2022-12-07T09:05:57;5.20;99.90
15636;DHT22;7917;50.818;6.972;2022-12-07T09:08:29;5.40;99.90
15636;DHT22;7917;50.818;6.972;2022-12-07T09:11:00;5.50;99.90
15636;DHT22;7917;50.818;6.972;2022-12-07T09:13:27;5.60;99.90
15636;DHT22;7917;50.818;6.972;2022-12-07T09:15:55;5.50;99.90
15636;DHT22;7917;50.818;6.972;2022-12-07T09:18:23;5.50;99.90
15636;DHT22;7917;50.818;6.972;2022-12-07T09:20:50;5.40;99.90
15636;DHT22;7917;50.818;6.972;2022-12-07T09:23:18;5.30;99.90
15636;DHT22;7917;50.818;6.972;2022-12-07T09:25:47;5.20;99.90
15636;DHT22;7917;50.818;6.972;2022-12-07T09:28:15;5.20;99.90
15636;DHT22;7917;50.818;6.972;2022-12-07T09:30:45;5.20;99.90
15636;DHT22;7917;50.818;6.972;2022-12-07T09:33:16;5.30;99.90
15636;DHT22;7917;50.818;6.972;2022-12-07T09:35:45;5.40;99.90
15636;DHT22;7917;50.818;6.972;2022-12-07T09:38:12;5.50;99.90
15636;DHT22;7917;50.818;6.972;2022-12-07T09:40:40;5.60;99.90
15636;DHT22;7917;50.818;6.972;2022-12-07T09:43:15;5.60;99.90
15636;DHT22;7917;50.818;6.972;2022-12-07T09:45:45;5.70;99.90
15636;DHT22;7917;50.818;6.972;2022-12-07T09:48:17;5.60;99.90
15636;DHT22;7917;50.818;6.972;2022-12-07T09:50:49;5.60;99.90
15636;DHT22;7917;50.818;6.972;2022-12-07T09:53:20;5.60;99.90
15636;DHT22;7917;50.818;6.972;2022-12-07T09:55:50;5.70;99.90
15636;DHT22;7917;50.818;6.972;2022-12-07T09:58:22;5.60;99.90
15636;DHT22;7917;50.818;6.972;2022-12-07T10:00:51;5.60;99.90
15636;DHT22;7917;50.818;6.972;2022-12-07T10:03:20;5.60;99.90
15636;DHT22;7917;50.818;6.972;2022-12-07T10:05:50;5.60;99.90
15636;DHT22;7917;50.818;6.972;2022-12-07T10:08:18;5.70;99.90
15636;DHT22;7917;50.818;6.972;2022-12-07T10:10:51;5.80;99.90
15636;DHT22;7917;50.818;6.972;2022-12-07T10:13:22;5.80;99.90
15636;DHT22;7917;50.818;6.972;2022-12-07T10:15:52;5.90;99.90
15636;DHT22;7917;50.818;6.972;2022-12-07T10:18:31;6.00;99.90
15636;DHT22;7917;50.818;6.972;2022-12-07T10:21:05;6.10;99.90
15636;DHT22;7917;50.818;6.972;2022-12-07T10:24:00;6.10;99.90
15636;DHT22;7917;50.818;6.972;2022-12-07T10:26:33;6.20;99.90
15636;DHT22;7917;50.818;6.972;2022-12-07T10:29:14;6.30;99.90
15636;DHT22;7917;50.818;6.972;2022-12-07T10:31:42;6.30;99.90
15636;DHT22;7917;50.818;6.972;2022-12-07T10:34:21;6.30;99.90
15636;DHT22;7917;50.818;6.972;2022-12-07T10:36:50;6.50;99.90
15636;DHT22;7917;50.818;6.972;2022-12-07T10:39:19;6.60;99.90
15636;DHT22;7917;50.818;6.972;2022-12-07T10:41:54;6.60;99.90
15636;DHT22;7917;50.818;6.972;2022-12-07T10:44:26;6.50;99.90
15636;DHT22;7917;50.818;6.972;2022-12-07T10:47:19;6.50;99.90
15636;DHT22;7917;50.818;6.972;2022-12-07T10:50:10;6.30;99.90
15636;DHT22;7917;50.818;6.972;2022-12-07T10:53:17;6.30;99.90
15636;DHT22;7917;50.818;6.972;2022-12-07T10:56:01;6.30;99.90
15636;DHT22;7917;50.818;6.972;2022-12-07T10:58:47;6.20;99.90
15636;DHT22;7917;50.818;6.972;2022-12-07T11:01:24;6.20;99.90
15636;DHT22;7917;50.818;6.972;2022-12-07T11:04:08;6.20;99.90
15636;DHT22;7917;50.818;6.972;2022-12-07T11:06:46;6.30;99.90
15636;DHT22;7917;50.818;6.972;2022-12-07T11:09:40;6.40;99.90
15636;DHT22;7917;50.818;6.972;2022-12-07T11:12:20;6.60;99.90
15636;DHT22;7917;50.818;6.972;2022-12-07T11:14:57;6.70;99.90
15636;DHT22;7917;50.818;6.972;2022-12-07T11:17:34;6.90;99.90
15636;DHT22;7917;50.818;6.972;2022-12-07T11:20:14;7.10;99.90
15636;DHT22;7917;50.818;6.972;2022-12-07T11:22:51;7.30;99.90
15636;DHT22;7917;50.818;6.972;2022-12-07T11:25:26;7.60;99.90
15636;DHT22;7917;50.818;6.972;2022-12-07T11:28:11;7.60;99.90
15636;DHT22;7917;50.818;6.972;2022-12-07T11:30:47;7.60;99.90
15636;DHT22;7917;50.818;6.972;2022-12-07T11:33:25;7.50;99.90
15636;DHT22;7917;50.818;6.972;2022-12-07T11:36:05;7.30;99.90
15636;DHT22;7917;50.818;6.972;2022-12-07T11:38:42;7.10;99.90
15636;DHT22;7917;50.818;6.972;2022-12-07T11:41:10;7.10;99.90
15636;DHT22;7917;50.818;6.972;2022-12-07T11:43:53;6.90;99.90
15636;DHT22;7917;50.818;6.972;2022-12-07T11:46:24;7.00;99.90
15636;DHT22;7917;50.818;6.972;2022-12-07T11:49:01;7.00;99.90
15636;DHT22;7917;50.818;6.972;2022-12-07T11:51:30;7.00;99.90
15636;DHT22;7917;50.818;6.972;2022-12-07T11:54:03;7.00;99.90
15636;DHT22;7917;50.818;6.972;2022-12-07T11:56:35;6.90;99.90
15636;DHT22;7917;50.818;6.972;2022-12-07T11:59:10;6.80;99.90
15636;DHT22;7917;50.818;6.972;2022-12-07T12:01:47;6.70;99.90
15636;DHT22;7917;50.818;6.972;2022-12-07T12:04:29;6.60;99.90
15636;DHT22;7917;50.818;6.972;2022-12-07T12:06:59;6.70;99.90
15636;DHT22;7917;50.818;6.972;2022-12-07T12:09:30;6.90;99.90
15636;DHT22;7917;50.818;6.972;2022-12-07T12:12:21;7.00;99.90
15636;DHT22;7917;50.818;6.972;2022-12-07T12:15:01;7.30;99.90
15636;DHT22;7917;50.818;6.972;2022-12-07T12:20:43;7.30;99.90
15636;DHT22;7917;50.818;6.972;2022-12-07T12:23:14;7.20;99.90
15636;DHT22;7917;50.818;6.972;2022-12-07T12:25:45;7.20;99.90
15636;DHT22;7917;50.818;6.972;2022-12-07T12:28:25;7.20;99.90
15636;DHT22;7917;50.818;6.972;2022-12-07T12:31:09;7.10;99.90
15636;DHT22;7917;50.818;6.972;2022-12-07T12:33:43;7.10;99.90
15636;DHT22;7917;50.818;6.972;2022-12-07T12:36:24;7.10;99.90
15636;DHT22;7917;50.818;6.972;2022-12-07T12:39:09;7.10;99.90
15636;DHT22;7917;50.818;6.972;2022-12-07T12:41:53;7.00;99.90
15636;DHT22;7917;50.818;6.972;2022-12-07T12:47:54;6.60;99.90
15636;DHT22;7917;50.818;6.972;2022-12-07T12:50:27;6.50;99.90
15636;DHT22;7917;50.818;6.972;2022-12-07T13:02:15;6.50;99.90
15636;DHT22;7917;50.818;6.972;2022-12-07T13:04:53;6.50;99.90
15636;DHT22;7917;50.818;6.972;2022-12-07T13:07:55;6.50;99.90
15636;DHT22;7917;50.818;6.972;2022-12-07T13:10:41;6.50;99.90
15636;DHT22;7917;50.818;6.972;2022-12-07T13:13:33;6.40;99.90
15636;DHT22;7917;50.818;6.972;2022-12-07T13:22:50;6.20;99.90
15636;DHT22;7917;50.818;6.972;2022-12-07T13:25:28;6.20;99.90
15636;DHT22;7917;50.818;6.972;2022-12-07T13:28:07;6.20;99.90
15636;DHT22;7917;50.818;6.972;2022-12-07T13:30:43;6.30;99.90
15636;DHT22;7917;50.818;6.972;2022-12-07T13:33:12;6.30;99.90
15636;DHT22;7917;50.818;6.972;2022-12-07T13:35:40;6.30;99.90
15636;DHT22;7917;50.818;6.972;2022-12-07T13:38:25;6.30;99.90
15636;DHT22;7917;50.818;6.972;2022-12-07T13:41:04;6.30;99.90
15636;DHT22;7917;50.818;6.972;2022-12-07T13:43:43;6.30;99.90
15636;DHT22;7917;50.818;6.972;2022-12-07T13:46:11;6.30;99.90
15636;DHT22;7917;50.818;6.972;2022-12-07T13:48:46;6.30;99.90
15636;DHT22;7917;50.818;6.972;2022-12-07T13:51:20;6.30;99.90
15636;DHT22;7917;50.818;6.972;2022-12-07T13:53:49;6.30;99.90
15636;DHT22;7917;50.818;6.972;2022-12-07T13:56:17;6.30;99.90
15636;DHT22;7917;50.818;6.972;2022-12-07T13:58:46;6.20;99.90
15636;DHT22;7917;50.818;6.972;2022-12-07T14:01:13;6.20;99.90
15636;DHT22;7917;50.818;6.972;2022-12-07T14:03:42;6.20;99.90
15636;DHT22;7917;50.818;6.972;2022-12-07T14:06:19;6.20;99.90
15636;DHT22;7917;50.818;6.972;2022-12-07T14:08:46;6.10;99.90
15636;DHT22;7917;50.818;6.972;2022-12-07T14:11:17;6.10;99.90
15636;DHT22;7917;50.818;6.972;2022-12-07T14:13:55;6.10;99.90
15636;DHT22;7917;50.818;6.972;2022-12-07T14:16:26;6.10;99.90
15636;DHT22;7917;50.818;6.972;2022-12-07T14:18:56;6.10;99.90
15636;DHT22;7917;50.818;6.972;2022-12-07T14:21:26;6.00;99.90
15636;DHT22;7917;50.818;6.972;2022-12-07T14:24:16;6.00;99.90
15636;DHT22;7917;50.818;6.972;2022-12-07T14:26:45;6.00;99.90
15636;DHT22;7917;50.818;6.972;2022-12-07T14:29:29;6.00;99.90
15636;DHT22;7917;50.818;6.972;2022-12-07T14:31:57;6.00;99.90
15636;DHT22;7917;50.818;6.972;2022-12-07T14:34:26;5.90;99.90
15636;DHT22;7917;50.818;6.972;2022-12-07T14:36:53;5.90;99.90
15636;DHT22;7917;50.818;6.972;2022-12-07T14:39:21;5.80;99.90
15636;DHT22;7917;50.818;6.972;2022-12-07T14:41:48;5.80;99.90
15636;DHT22;7917;50.818;6.972;2022-12-07T14:44:21;5.80;99.90
15636;DHT22;7917;50.818;6.972;2022-12-07T14:46:50;5.80;99.90
15636;DHT22;7917;50.818;6.972;2022-12-07T14:49:19;5.80;99.90
15636;DHT22;7917;50.818;6.972;2022-12-07T14:51:46;5.70;99.90
15636;DHT22;7917;50.818;6.972;2022-12-07T14:54:17;5.70;99.90
15636;DHT22;7917;50.818;6.972;2022-12-07T14:56:46;5.70;99.90
15636;DHT22;7917;50.818;6.972;2022-12-07T14:59:15;5.70;99.90
15636;DHT22;7917;50.818;6.972;2022-12-07T15:01:45;5.60;99.90
15636;DHT22;7917;50.818;6.972;2022-12-07T15:04:13;5.60;99.90
15636;DHT22;7917;50.818;6.972;2022-12-07T15:06:41;5.70;99.90
15636;DHT22;7917;50.818;6.972;2022-12-07T15:09:11;5.70;99.90
15636;DHT22;7917;50.818;6.972;2022-12-07T15:11:38;5.60;99.90
15636;DHT22;7917;50.818;6.972;2022-12-07T15:14:07;5.60;99.90
15636;DHT22;7917;50.818;6.972;2022-12-07T15:16:37;5.60;99.90
15636;DHT22;7917;50.818;6.972;2022-12-07T15:19:13;5.60;99.90
15636;DHT22;7917;50.818;6.972;2022-12-07T15:21:42;5.60;99.90
15636;DHT22;7917;50.818;6.972;2022-12-07T15:24:11;5.60;99.90
15636;DHT22;7917;50.818;6.972;2022-12-07T15:26:39;5.50;99.90
15636;DHT22;7917;50.818;6.972;2022-12-07T15:29:08;5.50;99.90
15636;DHT22;7917;50.818;6.972;2022-12-07T15:31:36;5.60;99.90
15636;DHT22;7917;50.818;6.972;2022-12-07T15:34:04;5.60;99.90
15636;DHT22;7917;50.818;6.972;2022-12-07T15:36:33;5.50;99.90
15636;DHT22;7917;50.818;6.972;2022-12-07T15:39:02;5.50;99.90
15636;DHT22;7917;50.818;6.972;2022-12-07T15:41:29;5.60;99.90
15636;DHT22;7917;50.818;6.972;2022-12-07T15:43:57;5.60;99.90
15636;DHT22;7917;50.818;6.972;2022-12-07T15:46:42;5.50;99.90
15636;DHT22;7917;50.818;6.972;2022-12-07T15:49:12;5.50;99.90
15636;DHT22;7917;50.818;6.972;2022-12-07T15:51:42;5.40;99.90
15636;DHT22;7917;50.818;6.972;2022-12-07T15:54:13;5.40;99.90
15636;DHT22;7917;50.818;6.972;2022-12-07T15:56:43;5.40;99.90
15636;DHT22;7917;50.818;6.972;2022-12-07T15:59:10;5.40;99.90
15636;DHT22;7917;50.818;6.972;2022-12-07T16:01:49;5.40;99.90
15636;DHT22;7917;50.818;6.972;2022-12-07T16:04:17;5.30;99.90
15636;DHT22;7917;50.818;6.972;2022-12-07T16:06:46;5.30;99.90
15636;DHT22;7917;50.818;6.972;2022-12-07T16:09:14;5.30;99.90
15636;DHT22;7917;50.818;6.972;2022-12-07T16:11:41;5.30;99.90
15636;DHT22;7917;50.818;6.972;2022-12-07T16:14:09;5.30;99.90
15636;DHT22;7917;50.818;6.972;2022-12-07T16:16:37;5.30;99.90
15636;DHT22;7917;50.818;6.972;2022-12-07T16:19:05;5.40;99.90
15636;DHT22;7917;50.818;6.972;2022-12-07T16:21:34;5.30;99.90
15636;DHT22;7917;50.818;6.972;2022-12-07T16:24:05;5.20;99.90
15636;DHT22;7917;50.818;6.972;2022-12-07T16:26:32;5.20;99.90
15636;DHT22;7917;50.818;6.972;2022-12-07T16:29:00;5.20;99.90
15636;DHT22;7917;50.818;6.972;2022-12-07T16:31:28;5.20;99.90
15636;DHT22;7917;50.818;6.972;2022-12-07T16:33:57;5.10;99.90
15636;DHT22;7917;50.818;6.972;2022-12-07T16:36:25;5.10;99.90
15636;DHT22;7917;50.818;6.972;2022-12-07T16:38:55;5.00;99.90
15636;DHT22;7917;50.818;6.972;2022-12-07T16:41:24;4.90;99.90
15636;DHT22;7917;50.818;6.972;2022-12-07T16:43:51;4.90;99.90
15636;DHT22;7917;50.818;6.972;2022-12-07T16:46:19;4.90;99.90
15636;DHT22;7917;50.818;6.972;2022-12-07T16:48:48;4.80;99.90
15636;DHT22;7917;50.818;6.972;2022-12-07T16:51:18;4.80;99.90
15636;DHT22;7917;50.818;6.972;2022-12-07T16:53:45;4.70;99.90
15636;DHT22;7917;50.818;6.972;2022-12-07T16:56:15;4.60;99.90